<?xml version="1.0" encoding="UTF-8" standalone="no" ?>
<gpx xmlns="http://www.topografix.com/GPX/1/1" xmlns:xsi="http://www.w3.org/2001/XMLSchema-instance" xsi:schemaLocation="http://www.topografix.com/GPX/1/1 http://www.topografix.com/GPX/1/1/gpx.xsd" version="1.1" creator="VisuGPX - https://www.visugpx.com">
  <metadata>
    <name>Col Les Abeilles - Combe de Clare</name>
    <desc><![CDATA[Randonnée sans difficultés particulières. En grande partie ombragée.]]></desc>
  </metadata>
  <wpt lat="44.09359" lon="5.32527">
    <ele>974</ele>
    <name><![CDATA[Point de passage 1]]></name>
  </wpt>
  <wpt lat="44.09373" lon="5.32476">
    <ele>973</ele>
    <name><![CDATA[Point de passage 2]]></name>
  </wpt>
  <trk>
    <name><![CDATA[La forêt domaniale de Sault]]></name>
    <extensions>
      <line xmlns="http://www.topografix.com/GPX/gpx_style/0/2">
        <color>0000FF</color>
        <width>4</width>
      </line>
    </extensions>
    <trkseg>
      <trkpt lat="44.09359" lon="5.32527">
        <ele>974</ele>
        <time>2026-07-02T17:12:39.000Z</time>
      </trkpt>
      <trkpt lat="44.09336" lon="5.32612">
        <ele>978</ele>
        <time>2026-07-02T17:14:35.000Z</time>
      </trkpt>
      <trkpt lat="44.09331" lon="5.32658">
        <ele>981</ele>
        <time>2026-07-02T17:15:43.000Z</time>
      </trkpt>
      <trkpt lat="44.09334" lon="5.3276">
        <ele>986</ele>
        <time>2026-07-02T17:17:58.000Z</time>
      </trkpt>
      <trkpt lat="44.09326" lon="5.32778">
        <ele>986</ele>
        <time>2026-07-02T17:18:15.000Z</time>
      </trkpt>
      <trkpt lat="44.09311" lon="5.32923">
        <ele>995</ele>
        <time>2026-07-02T17:21:48.000Z</time>
      </trkpt>
      <trkpt lat="44.0932" lon="5.32933">
        <ele>995</ele>
        <time>2026-07-02T17:22:01.000Z</time>
      </trkpt>
      <trkpt lat="44.09306" lon="5.33025">
        <ele>996</ele>
        <time>2026-07-02T17:23:28.000Z</time>
      </trkpt>
      <trkpt lat="44.09292" lon="5.33021">
        <ele>997</ele>
        <time>2026-07-02T17:12:39.000Z</time>
      </trkpt>
      <trkpt lat="44.0937" lon="5.33128">
        <ele>1001</ele>
        <time>2026-07-02T17:15:26.000Z</time>
      </trkpt>
      <trkpt lat="44.09471" lon="5.33208">
        <ele>1000</ele>
        <time>2026-07-02T17:17:40.000Z</time>
      </trkpt>
      <trkpt lat="44.09677" lon="5.33355">
        <ele>1001</ele>
        <time>2026-07-02T17:22:15.000Z</time>
      </trkpt>
      <trkpt lat="44.09675" lon="5.33387">
        <ele>1001</ele>
        <time>2026-07-02T17:22:41.000Z</time>
      </trkpt>
      <trkpt lat="44.09611" lon="5.33577">
        <ele>1010</ele>
        <time>2026-07-02T17:27:06.000Z</time>
      </trkpt>
      <trkpt lat="44.09581" lon="5.33693">
        <ele>1009</ele>
        <time>2026-07-02T17:28:48.000Z</time>
      </trkpt>
      <trkpt lat="44.09577" lon="5.33781">
        <ele>1006</ele>
        <time>2026-07-02T17:30:01.000Z</time>
      </trkpt>
      <trkpt lat="44.09467" lon="5.34034">
        <ele>1016</ele>
        <time>2026-07-02T17:35:47.000Z</time>
      </trkpt>
      <trkpt lat="44.09459" lon="5.34071">
        <ele>1016</ele>
        <time>2026-07-02T17:36:19.000Z</time>
      </trkpt>
      <trkpt lat="44.09455" lon="5.3412">
        <ele>1018</ele>
        <time>2026-07-02T17:37:20.000Z</time>
      </trkpt>
      <trkpt lat="44.09466" lon="5.34167">
        <ele>1019</ele>
        <time>2026-07-02T17:38:11.000Z</time>
      </trkpt>
      <trkpt lat="44.09477" lon="5.34183">
        <ele>1021</ele>
        <time>2026-07-02T17:38:49.000Z</time>
      </trkpt>
      <trkpt lat="44.09725" lon="5.34061">
        <ele>1036</ele>
        <time>2026-07-02T17:46:25.000Z</time>
      </trkpt>
      <trkpt lat="44.09765" lon="5.34052">
        <ele>1037</ele>
        <time>2026-07-02T17:47:22.000Z</time>
      </trkpt>
      <trkpt lat="44.10024" lon="5.34092">
        <ele>1059</ele>
        <time>2026-07-02T17:56:07.000Z</time>
      </trkpt>
      <trkpt lat="44.10064" lon="5.34108">
        <ele>1063</ele>
        <time>2026-07-02T17:57:36.000Z</time>
      </trkpt>
      <trkpt lat="44.10105" lon="5.34099">
        <ele>1066</ele>
        <time>2026-07-02T17:58:55.000Z</time>
      </trkpt>
      <trkpt lat="44.10139" lon="5.34101">
        <ele>1069</ele>
        <time>2026-07-02T18:00:05.000Z</time>
      </trkpt>
      <trkpt lat="44.10139" lon="5.34101">
        <ele>1069</ele>
        <time>2026-07-02T18:00:05.000Z</time>
      </trkpt>
      <trkpt lat="44.10168" lon="5.34121">
        <ele>1071</ele>
        <time>2026-07-02T18:01:03.000Z</time>
      </trkpt>
      <trkpt lat="44.1022" lon="5.34137">
        <ele>1073</ele>
        <time>2026-07-02T18:02:24.000Z</time>
      </trkpt>
      <trkpt lat="44.10237" lon="5.34155">
        <ele>1073</ele>
        <time>2026-07-02T18:02:49.000Z</time>
      </trkpt>
      <trkpt lat="44.10247" lon="5.34171">
        <ele>1073</ele>
        <time>2026-07-02T18:03:06.000Z</time>
      </trkpt>
      <trkpt lat="44.10265" lon="5.34195">
        <ele>1073</ele>
        <time>2026-07-02T18:03:35.000Z</time>
      </trkpt>
      <trkpt lat="44.10286" lon="5.34242">
        <ele>1073</ele>
        <time>2026-07-02T18:04:20.000Z</time>
      </trkpt>
      <trkpt lat="44.10303" lon="5.34263">
        <ele>1074</ele>
        <time>2026-07-02T18:04:56.000Z</time>
      </trkpt>
      <trkpt lat="44.1043" lon="5.34342">
        <ele>1079</ele>
        <time>2026-07-02T18:08:26.000Z</time>
      </trkpt>
      <trkpt lat="44.10456" lon="5.34363">
        <ele>1080</ele>
        <time>2026-07-02T18:09:11.000Z</time>
      </trkpt>
      <trkpt lat="44.10509" lon="5.34392">
        <ele>1082</ele>
        <time>2026-07-02T18:10:37.000Z</time>
      </trkpt>
      <trkpt lat="44.10557" lon="5.34412">
        <ele>1084</ele>
        <time>2026-07-02T18:11:54.000Z</time>
      </trkpt>
      <trkpt lat="44.10574" lon="5.34424">
        <ele>1084</ele>
        <time>2026-07-02T18:12:16.000Z</time>
      </trkpt>
      <trkpt lat="44.10629" lon="5.34481">
        <ele>1087</ele>
        <time>2026-07-02T18:14:05.000Z</time>
      </trkpt>
      <trkpt lat="44.10642" lon="5.34499">
        <ele>1088</ele>
        <time>2026-07-02T18:14:37.000Z</time>
      </trkpt>
      <trkpt lat="44.1068" lon="5.34576">
        <ele>1089</ele>
        <time>2026-07-02T18:16:04.000Z</time>
      </trkpt>
      <trkpt lat="44.10715" lon="5.34614">
        <ele>1090</ele>
        <time>2026-07-02T18:17:05.000Z</time>
      </trkpt>
      <trkpt lat="44.10714" lon="5.34614">
        <ele>1090</ele>
        <time>2026-07-02T18:17:05.000Z</time>
      </trkpt>
      <trkpt lat="44.10745" lon="5.34611">
        <ele>1091</ele>
        <time>2026-07-02T18:17:50.000Z</time>
      </trkpt>
      <trkpt lat="44.10842" lon="5.34577">
        <ele>1094</ele>
        <time>2026-07-02T18:20:16.000Z</time>
      </trkpt>
      <trkpt lat="44.10856" lon="5.34574">
        <ele>1094</ele>
        <time>2026-07-02T18:20:32.000Z</time>
      </trkpt>
      <trkpt lat="44.10902" lon="5.34577">
        <ele>1095</ele>
        <time>2026-07-02T18:21:35.000Z</time>
      </trkpt>
      <trkpt lat="44.10902" lon="5.34577">
        <ele>1095</ele>
        <time>2026-07-02T18:21:35.000Z</time>
      </trkpt>
      <trkpt lat="44.10913" lon="5.34572">
        <ele>1096</ele>
        <time>2026-07-02T18:21:59.000Z</time>
      </trkpt>
      <trkpt lat="44.10939" lon="5.34544">
        <ele>1097</ele>
        <time>2026-07-02T18:22:46.000Z</time>
      </trkpt>
      <trkpt lat="44.10943" lon="5.34528">
        <ele>1098</ele>
        <time>2026-07-02T18:23:10.000Z</time>
      </trkpt>
      <trkpt lat="44.10943" lon="5.34509">
        <ele>1098</ele>
        <time>2026-07-02T18:23:26.000Z</time>
      </trkpt>
      <trkpt lat="44.10936" lon="5.34461">
        <ele>1099</ele>
        <time>2026-07-02T18:24:17.000Z</time>
      </trkpt>
      <trkpt lat="44.1093" lon="5.34376">
        <ele>1102</ele>
        <time>2026-07-02T18:25:58.000Z</time>
      </trkpt>
      <trkpt lat="44.10925" lon="5.34347">
        <ele>1105</ele>
        <time>2026-07-02T18:26:53.000Z</time>
      </trkpt>
      <trkpt lat="44.10916" lon="5.34322">
        <ele>1106</ele>
        <time>2026-07-02T18:27:27.000Z</time>
      </trkpt>
      <trkpt lat="44.10878" lon="5.34245">
        <ele>1106</ele>
        <time>2026-07-02T18:28:44.000Z</time>
      </trkpt>
      <trkpt lat="44.10872" lon="5.34198">
        <ele>1107</ele>
        <time>2026-07-02T18:29:33.000Z</time>
      </trkpt>
      <trkpt lat="44.10872" lon="5.34145">
        <ele>1107</ele>
        <time>2026-07-02T18:30:17.000Z</time>
      </trkpt>
      <trkpt lat="44.10868" lon="5.34122">
        <ele>1106</ele>
        <time>2026-07-02T18:30:36.000Z</time>
      </trkpt>
      <trkpt lat="44.10886" lon="5.34077">
        <ele>1106</ele>
        <time>2026-07-02T18:31:18.000Z</time>
      </trkpt>
      <trkpt lat="44.10915" lon="5.34036">
        <ele>1107</ele>
        <time>2026-07-02T18:32:16.000Z</time>
      </trkpt>
      <trkpt lat="44.10982" lon="5.33966">
        <ele>1109</ele>
        <time>2026-07-02T18:34:12.000Z</time>
      </trkpt>
      <trkpt lat="44.11059" lon="5.33894">
        <ele>1110</ele>
        <time>2026-07-02T18:36:08.000Z</time>
      </trkpt>
      <trkpt lat="44.11059" lon="5.33895">
        <ele>1110</ele>
        <time>2026-07-02T18:36:08.000Z</time>
      </trkpt>
      <trkpt lat="44.11102" lon="5.33865">
        <ele>1111</ele>
        <time>2026-07-02T18:37:14.000Z</time>
      </trkpt>
      <trkpt lat="44.11179" lon="5.33824">
        <ele>1111</ele>
        <time>2026-07-02T18:38:48.000Z</time>
      </trkpt>
      <trkpt lat="44.11233" lon="5.33815">
        <ele>1112</ele>
        <time>2026-07-02T18:40:00.000Z</time>
      </trkpt>
      <trkpt lat="44.1129" lon="5.33814">
        <ele>1113</ele>
        <time>2026-07-02T18:41:16.000Z</time>
      </trkpt>
      <trkpt lat="44.11305" lon="5.33821">
        <ele>1113</ele>
        <time>2026-07-02T18:41:34.000Z</time>
      </trkpt>
      <trkpt lat="44.11353" lon="5.33863">
        <ele>1113</ele>
        <time>2026-07-02T18:42:38.000Z</time>
      </trkpt>
      <trkpt lat="44.11353" lon="5.33863">
        <ele>1113</ele>
        <time>2026-07-02T18:42:38.000Z</time>
      </trkpt>
      <trkpt lat="44.11371" lon="5.33891">
        <ele>1113</ele>
        <time>2026-07-02T18:43:09.000Z</time>
      </trkpt>
      <trkpt lat="44.11383" lon="5.33966">
        <ele>1113</ele>
        <time>2026-07-02T18:44:12.000Z</time>
      </trkpt>
      <trkpt lat="44.11402" lon="5.34023">
        <ele>1114</ele>
        <time>2026-07-02T18:45:14.000Z</time>
      </trkpt>
      <trkpt lat="44.11408" lon="5.34036">
        <ele>1114</ele>
        <time>2026-07-02T18:45:26.000Z</time>
      </trkpt>
      <trkpt lat="44.11416" lon="5.34043">
        <ele>1114</ele>
        <time>2026-07-02T18:45:38.000Z</time>
      </trkpt>
      <trkpt lat="44.11424" lon="5.34045">
        <ele>1114</ele>
        <time>2026-07-02T18:45:47.000Z</time>
      </trkpt>
      <trkpt lat="44.11424" lon="5.34045">
        <ele>1114</ele>
        <time>2026-07-02T18:46:15.000Z</time>
      </trkpt>
      <trkpt lat="44.11424" lon="5.34045">
        <ele>1114</ele>
        <time>2026-07-02T18:46:15.000Z</time>
      </trkpt>
      <trkpt lat="44.1143" lon="5.34044">
        <ele>1114</ele>
        <time>2026-07-02T18:46:21.000Z</time>
      </trkpt>
      <trkpt lat="44.11434" lon="5.34037">
        <ele>1115</ele>
        <time>2026-07-02T18:46:39.000Z</time>
      </trkpt>
      <trkpt lat="44.11463" lon="5.33973">
        <ele>1116</ele>
        <time>2026-07-02T18:47:51.000Z</time>
      </trkpt>
      <trkpt lat="44.11492" lon="5.3395">
        <ele>1117</ele>
        <time>2026-07-02T18:48:40.000Z</time>
      </trkpt>
      <trkpt lat="44.11502" lon="5.33938">
        <ele>1118</ele>
        <time>2026-07-02T18:49:06.000Z</time>
      </trkpt>
      <trkpt lat="44.11505" lon="5.33926">
        <ele>1119</ele>
        <time>2026-07-02T18:49:26.000Z</time>
      </trkpt>
      <trkpt lat="44.11499" lon="5.33856">
        <ele>1120</ele>
        <time>2026-07-02T18:50:34.000Z</time>
      </trkpt>
      <trkpt lat="44.11502" lon="5.33837">
        <ele>1120</ele>
        <time>2026-07-02T18:50:50.000Z</time>
      </trkpt>
      <trkpt lat="44.1151" lon="5.33819">
        <ele>1120</ele>
        <time>2026-07-02T18:51:08.000Z</time>
      </trkpt>
      <trkpt lat="44.11529" lon="5.33793">
        <ele>1121</ele>
        <time>2026-07-02T18:51:49.000Z</time>
      </trkpt>
      <trkpt lat="44.11537" lon="5.33779">
        <ele>1121</ele>
        <time>2026-07-02T18:52:04.000Z</time>
      </trkpt>
      <trkpt lat="44.1154" lon="5.33759">
        <ele>1122</ele>
        <time>2026-07-02T18:52:31.000Z</time>
      </trkpt>
      <trkpt lat="44.11544" lon="5.33552">
        <ele>1123</ele>
        <time>2026-07-02T18:55:32.000Z</time>
      </trkpt>
      <trkpt lat="44.11583" lon="5.33471">
        <ele>1125</ele>
        <time>2026-07-02T18:57:13.000Z</time>
      </trkpt>
      <trkpt lat="44.11599" lon="5.33406">
        <ele>1127</ele>
        <time>2026-07-02T18:58:30.000Z</time>
      </trkpt>
      <trkpt lat="44.11601" lon="5.33379">
        <ele>1126</ele>
        <time>2026-07-02T18:58:52.000Z</time>
      </trkpt>
      <trkpt lat="44.11599" lon="5.33357">
        <ele>1126</ele>
        <time>2026-07-02T18:59:10.000Z</time>
      </trkpt>
      <trkpt lat="44.11577" lon="5.33259">
        <ele>1127</ele>
        <time>2026-07-02T19:00:45.000Z</time>
      </trkpt>
      <trkpt lat="44.11576" lon="5.33238">
        <ele>1127</ele>
        <time>2026-07-02T19:01:02.000Z</time>
      </trkpt>
      <trkpt lat="44.11581" lon="5.33214">
        <ele>1127</ele>
        <time>2026-07-02T19:01:23.000Z</time>
      </trkpt>
      <trkpt lat="44.11581" lon="5.33214">
        <ele>1127</ele>
        <time>2026-07-02T19:01:23.000Z</time>
      </trkpt>
      <trkpt lat="44.11587" lon="5.33192">
        <ele>1127</ele>
        <time>2026-07-02T19:01:43.000Z</time>
      </trkpt>
      <trkpt lat="44.11613" lon="5.33161">
        <ele>1127</ele>
        <time>2026-07-02T19:02:22.000Z</time>
      </trkpt>
      <trkpt lat="44.11661" lon="5.33117">
        <ele>1127</ele>
        <time>2026-07-02T19:03:28.000Z</time>
      </trkpt>
      <trkpt lat="44.11739" lon="5.33021">
        <ele>1129</ele>
        <time>2026-07-02T19:05:47.000Z</time>
      </trkpt>
      <trkpt lat="44.11778" lon="5.32948">
        <ele>1130</ele>
        <time>2026-07-02T19:07:12.000Z</time>
      </trkpt>
      <trkpt lat="44.11834" lon="5.32889">
        <ele>1129</ele>
        <time>2026-07-02T19:08:32.000Z</time>
      </trkpt>
      <trkpt lat="44.11833" lon="5.32889">
        <ele>1129</ele>
        <time>2026-07-02T19:08:44.000Z</time>
      </trkpt>
      <trkpt lat="44.11833" lon="5.3289">
        <ele>1129</ele>
        <time>2026-07-02T19:08:44.000Z</time>
      </trkpt>
      <trkpt lat="44.11856" lon="5.32872">
        <ele>1129</ele>
        <time>2026-07-02T19:09:14.000Z</time>
      </trkpt>
      <trkpt lat="44.11871" lon="5.32864">
        <ele>1130</ele>
        <time>2026-07-02T19:09:43.000Z</time>
      </trkpt>
      <trkpt lat="44.11904" lon="5.32868">
        <ele>1130</ele>
        <time>2026-07-02T19:10:20.000Z</time>
      </trkpt>
      <trkpt lat="44.11929" lon="5.32879">
        <ele>1129</ele>
        <time>2026-07-02T19:10:50.000Z</time>
      </trkpt>
      <trkpt lat="44.12003" lon="5.32929">
        <ele>1129</ele>
        <time>2026-07-02T19:12:25.000Z</time>
      </trkpt>
      <trkpt lat="44.12082" lon="5.32961">
        <ele>1129</ele>
        <time>2026-07-02T19:13:59.000Z</time>
      </trkpt>
      <trkpt lat="44.12082" lon="5.32961">
        <ele>1129</ele>
        <time>2026-07-02T19:13:59.000Z</time>
      </trkpt>
      <trkpt lat="44.12151" lon="5.33003">
        <ele>1126</ele>
        <time>2026-07-02T19:15:25.000Z</time>
      </trkpt>
      <trkpt lat="44.12179" lon="5.33032">
        <ele>1127</ele>
        <time>2026-07-02T19:16:15.000Z</time>
      </trkpt>
      <trkpt lat="44.12204" lon="5.33064">
        <ele>1127</ele>
        <time>2026-07-02T19:16:54.000Z</time>
      </trkpt>
      <trkpt lat="44.12218" lon="5.33087">
        <ele>1126</ele>
        <time>2026-07-02T19:17:19.000Z</time>
      </trkpt>
      <trkpt lat="44.12228" lon="5.33112">
        <ele>1126</ele>
        <time>2026-07-02T19:17:42.000Z</time>
      </trkpt>
      <trkpt lat="44.12263" lon="5.33231">
        <ele>1125</ele>
        <time>2026-07-02T19:19:28.000Z</time>
      </trkpt>
      <trkpt lat="44.12273" lon="5.3329">
        <ele>1125</ele>
        <time>2026-07-02T19:20:17.000Z</time>
      </trkpt>
      <trkpt lat="44.12276" lon="5.33318">
        <ele>1125</ele>
        <time>2026-07-02T19:20:40.000Z</time>
      </trkpt>
      <trkpt lat="44.12276" lon="5.33427">
        <ele>1126</ele>
        <time>2026-07-02T19:22:21.000Z</time>
      </trkpt>
      <trkpt lat="44.12288" lon="5.33509">
        <ele>1126</ele>
        <time>2026-07-02T19:23:29.000Z</time>
      </trkpt>
      <trkpt lat="44.12298" lon="5.33544">
        <ele>1124</ele>
        <time>2026-07-02T19:24:00.000Z</time>
      </trkpt>
      <trkpt lat="44.12296" lon="5.33546">
        <ele>1125</ele>
        <time>2026-07-02T19:24:14.000Z</time>
      </trkpt>
      <trkpt lat="44.12298" lon="5.33544">
        <ele>1124</ele>
        <time>2026-07-02T19:24:16.000Z</time>
      </trkpt>
      <trkpt lat="44.12307" lon="5.33566">
        <ele>1126</ele>
        <time>2026-07-02T19:24:57.000Z</time>
      </trkpt>
      <trkpt lat="44.1232" lon="5.33582">
        <ele>1125</ele>
        <time>2026-07-02T19:25:17.000Z</time>
      </trkpt>
      <trkpt lat="44.12379" lon="5.33623">
        <ele>1124</ele>
        <time>2026-07-02T19:26:33.000Z</time>
      </trkpt>
      <trkpt lat="44.12387" lon="5.33619">
        <ele>1125</ele>
        <time>2026-07-02T19:26:53.000Z</time>
      </trkpt>
      <trkpt lat="44.12383" lon="5.33601">
        <ele>1125</ele>
        <time>2026-07-02T19:27:09.000Z</time>
      </trkpt>
      <trkpt lat="44.1237" lon="5.33571">
        <ele>1126</ele>
        <time>2026-07-02T19:27:48.000Z</time>
      </trkpt>
      <trkpt lat="44.12371" lon="5.33544">
        <ele>1126</ele>
        <time>2026-07-02T19:28:10.000Z</time>
      </trkpt>
      <trkpt lat="44.12349" lon="5.33536">
        <ele>1121</ele>
        <time>2026-07-02T19:28:36.000Z</time>
      </trkpt>
      <trkpt lat="44.12341" lon="5.33522">
        <ele>1118</ele>
        <time>2026-07-02T19:28:52.000Z</time>
      </trkpt>
      <trkpt lat="44.12329" lon="5.33444">
        <ele>1114</ele>
        <time>2026-07-02T19:29:57.000Z</time>
      </trkpt>
      <trkpt lat="44.12327" lon="5.334">
        <ele>1111</ele>
        <time>2026-07-02T19:30:33.000Z</time>
      </trkpt>
      <trkpt lat="44.12333" lon="5.33273">
        <ele>1104</ele>
        <time>2026-07-02T19:32:18.000Z</time>
      </trkpt>
      <trkpt lat="44.12329" lon="5.33222">
        <ele>1101</ele>
        <time>2026-07-02T19:33:00.000Z</time>
      </trkpt>
      <trkpt lat="44.12331" lon="5.33208">
        <ele>1101</ele>
        <time>2026-07-02T19:33:12.000Z</time>
      </trkpt>
      <trkpt lat="44.1233" lon="5.33172">
        <ele>1099</ele>
        <time>2026-07-02T19:33:41.000Z</time>
      </trkpt>
      <trkpt lat="44.12327" lon="5.33159">
        <ele>1098</ele>
        <time>2026-07-02T19:33:53.000Z</time>
      </trkpt>
      <trkpt lat="44.12327" lon="5.33159">
        <ele>1098</ele>
        <time>2026-07-02T19:33:53.000Z</time>
      </trkpt>
      <trkpt lat="44.12279" lon="5.32938">
        <ele>1085</ele>
        <time>2026-07-02T19:37:02.000Z</time>
      </trkpt>
      <trkpt lat="44.12247" lon="5.32839">
        <ele>1081</ele>
        <time>2026-07-02T19:38:32.000Z</time>
      </trkpt>
      <trkpt lat="44.12238" lon="5.3282">
        <ele>1079</ele>
        <time>2026-07-02T19:38:51.000Z</time>
      </trkpt>
      <trkpt lat="44.12232" lon="5.32815">
        <ele>1079</ele>
        <time>2026-07-02T19:38:59.000Z</time>
      </trkpt>
      <trkpt lat="44.12232" lon="5.32815">
        <ele>1079</ele>
        <time>2026-07-02T19:38:59.000Z</time>
      </trkpt>
      <trkpt lat="44.12175" lon="5.32769">
        <ele>1074</ele>
        <time>2026-07-02T19:40:14.000Z</time>
      </trkpt>
      <trkpt lat="44.12104" lon="5.327">
        <ele>1069</ele>
        <time>2026-07-02T19:41:54.000Z</time>
      </trkpt>
      <trkpt lat="44.12081" lon="5.32666">
        <ele>1066</ele>
        <time>2026-07-02T19:42:33.000Z</time>
      </trkpt>
      <trkpt lat="44.12069" lon="5.32635">
        <ele>1064</ele>
        <time>2026-07-02T19:43:01.000Z</time>
      </trkpt>
      <trkpt lat="44.12011" lon="5.32564">
        <ele>1058</ele>
        <time>2026-07-02T19:44:30.000Z</time>
      </trkpt>
      <trkpt lat="44.1195" lon="5.32429">
        <ele>1051</ele>
        <time>2026-07-02T19:46:41.000Z</time>
      </trkpt>
      <trkpt lat="44.11945" lon="5.32398">
        <ele>1048</ele>
        <time>2026-07-02T19:47:07.000Z</time>
      </trkpt>
      <trkpt lat="44.1194" lon="5.32381">
        <ele>1048</ele>
        <time>2026-07-02T19:47:22.000Z</time>
      </trkpt>
      <trkpt lat="44.11936" lon="5.32311">
        <ele>1045</ele>
        <time>2026-07-02T19:48:20.000Z</time>
      </trkpt>
      <trkpt lat="44.11936" lon="5.32311">
        <ele>1045</ele>
        <time>2026-07-02T19:48:20.000Z</time>
      </trkpt>
      <trkpt lat="44.11938" lon="5.32263">
        <ele>1042</ele>
        <time>2026-07-02T19:49:00.000Z</time>
      </trkpt>
      <trkpt lat="44.11935" lon="5.32222">
        <ele>1040</ele>
        <time>2026-07-02T19:49:34.000Z</time>
      </trkpt>
      <trkpt lat="44.11909" lon="5.32159">
        <ele>1035</ele>
        <time>2026-07-02T19:50:34.000Z</time>
      </trkpt>
      <trkpt lat="44.11877" lon="5.32126">
        <ele>1033</ele>
        <time>2026-07-02T19:51:20.000Z</time>
      </trkpt>
      <trkpt lat="44.11877" lon="5.32126">
        <ele>1033</ele>
        <time>2026-07-02T19:51:20.000Z</time>
      </trkpt>
      <trkpt lat="44.11822" lon="5.32072">
        <ele>1029</ele>
        <time>2026-07-02T19:52:37.000Z</time>
      </trkpt>
      <trkpt lat="44.11783" lon="5.32038">
        <ele>1026</ele>
        <time>2026-07-02T19:53:30.000Z</time>
      </trkpt>
      <trkpt lat="44.11775" lon="5.32019">
        <ele>1024</ele>
        <time>2026-07-02T19:53:49.000Z</time>
      </trkpt>
      <trkpt lat="44.1177" lon="5.31989">
        <ele>1023</ele>
        <time>2026-07-02T19:54:14.000Z</time>
      </trkpt>
      <trkpt lat="44.11762" lon="5.31969">
        <ele>1024</ele>
        <time>2026-07-02T19:54:43.000Z</time>
      </trkpt>
      <trkpt lat="44.11713" lon="5.31896">
        <ele>1018</ele>
        <time>2026-07-02T19:56:06.000Z</time>
      </trkpt>
      <trkpt lat="44.11707" lon="5.31871">
        <ele>1016</ele>
        <time>2026-07-02T19:56:27.000Z</time>
      </trkpt>
      <trkpt lat="44.11707" lon="5.31844">
        <ele>1014</ele>
        <time>2026-07-02T19:56:49.000Z</time>
      </trkpt>
      <trkpt lat="44.11712" lon="5.31823">
        <ele>1012</ele>
        <time>2026-07-02T19:57:07.000Z</time>
      </trkpt>
      <trkpt lat="44.11719" lon="5.31809">
        <ele>1012</ele>
        <time>2026-07-02T19:57:22.000Z</time>
      </trkpt>
      <trkpt lat="44.11764" lon="5.31693">
        <ele>1005</ele>
        <time>2026-07-02T19:59:11.000Z</time>
      </trkpt>
      <trkpt lat="44.11798" lon="5.31573">
        <ele>997</ele>
        <time>2026-07-02T20:00:57.000Z</time>
      </trkpt>
      <trkpt lat="44.11813" lon="5.31547">
        <ele>993</ele>
        <time>2026-07-02T20:01:25.000Z</time>
      </trkpt>
      <trkpt lat="44.11829" lon="5.31531">
        <ele>991</ele>
        <time>2026-07-02T20:01:47.000Z</time>
      </trkpt>
      <trkpt lat="44.11829" lon="5.315">
        <ele>998</ele>
        <time>2026-07-02T20:03:25.000Z</time>
      </trkpt>
      <trkpt lat="44.11832" lon="5.31483">
        <ele>1001</ele>
        <time>2026-07-02T20:04:10.000Z</time>
      </trkpt>
      <trkpt lat="44.11838" lon="5.31465">
        <ele>1004</ele>
        <time>2026-07-02T20:04:57.000Z</time>
      </trkpt>
      <trkpt lat="44.11856" lon="5.31438">
        <ele>1006</ele>
        <time>2026-07-02T20:05:47.000Z</time>
      </trkpt>
      <trkpt lat="44.1186" lon="5.31408">
        <ele>1012</ele>
        <time>2026-07-02T20:07:14.000Z</time>
      </trkpt>
      <trkpt lat="44.11859" lon="5.31385">
        <ele>1011</ele>
        <time>2026-07-02T20:07:33.000Z</time>
      </trkpt>
      <trkpt lat="44.11849" lon="5.31344">
        <ele>1016</ele>
        <time>2026-07-02T20:09:00.000Z</time>
      </trkpt>
      <trkpt lat="44.11818" lon="5.3129">
        <ele>1020</ele>
        <time>2026-07-02T20:10:38.000Z</time>
      </trkpt>
      <trkpt lat="44.11789" lon="5.31256">
        <ele>1024</ele>
        <time>2026-07-02T20:12:02.000Z</time>
      </trkpt>
      <trkpt lat="44.11756" lon="5.312">
        <ele>1025</ele>
        <time>2026-07-02T20:13:12.000Z</time>
      </trkpt>
      <trkpt lat="44.11651" lon="5.31066">
        <ele>1034</ele>
        <time>2026-07-02T20:17:27.000Z</time>
      </trkpt>
      <trkpt lat="44.11646" lon="5.31049">
        <ele>1034</ele>
        <time>2026-07-02T20:17:42.000Z</time>
      </trkpt>
      <trkpt lat="44.11637" lon="5.31061">
        <ele>1034</ele>
        <time>2026-07-02T20:17:55.000Z</time>
      </trkpt>
      <trkpt lat="44.11641" lon="5.31065">
        <ele>1034</ele>
        <time>2026-07-02T20:29:48.000Z</time>
      </trkpt>
      <trkpt lat="44.11637" lon="5.31061">
        <ele>1034</ele>
        <time>2026-07-02T20:29:53.000Z</time>
      </trkpt>
      <trkpt lat="44.11627" lon="5.31067">
        <ele>1034</ele>
        <time>2026-07-02T20:30:06.000Z</time>
      </trkpt>
      <trkpt lat="44.11611" lon="5.31068">
        <ele>1034</ele>
        <time>2026-07-02T20:30:24.000Z</time>
      </trkpt>
      <trkpt lat="44.11524" lon="5.31041">
        <ele>1029</ele>
        <time>2026-07-02T20:32:06.000Z</time>
      </trkpt>
      <trkpt lat="44.11485" lon="5.3102">
        <ele>1027</ele>
        <time>2026-07-02T20:32:55.000Z</time>
      </trkpt>
      <trkpt lat="44.11469" lon="5.31005">
        <ele>1024</ele>
        <time>2026-07-02T20:33:16.000Z</time>
      </trkpt>
      <trkpt lat="44.11457" lon="5.30985">
        <ele>1023</ele>
        <time>2026-07-02T20:33:37.000Z</time>
      </trkpt>
      <trkpt lat="44.1142" lon="5.30942">
        <ele>1019</ele>
        <time>2026-07-02T20:34:32.000Z</time>
      </trkpt>
      <trkpt lat="44.1142" lon="5.30942">
        <ele>1019</ele>
        <time>2026-07-02T20:34:32.000Z</time>
      </trkpt>
      <trkpt lat="44.11401" lon="5.30927">
        <ele>1017</ele>
        <time>2026-07-02T20:34:57.000Z</time>
      </trkpt>
      <trkpt lat="44.11387" lon="5.30966">
        <ele>1017</ele>
        <time>2026-07-02T20:35:33.000Z</time>
      </trkpt>
      <trkpt lat="44.11375" lon="5.31038">
        <ele>1017</ele>
        <time>2026-07-02T20:36:33.000Z</time>
      </trkpt>
      <trkpt lat="44.11348" lon="5.31134">
        <ele>1021</ele>
        <time>2026-07-02T20:38:39.000Z</time>
      </trkpt>
      <trkpt lat="44.1135" lon="5.31136">
        <ele>1022</ele>
        <time>2026-07-02T20:55:17.000Z</time>
      </trkpt>
      <trkpt lat="44.11348" lon="5.31134">
        <ele>1021</ele>
        <time>2026-07-02T20:55:20.000Z</time>
      </trkpt>
      <trkpt lat="44.11339" lon="5.31149">
        <ele>1022</ele>
        <time>2026-07-02T20:55:46.000Z</time>
      </trkpt>
      <trkpt lat="44.11295" lon="5.31194">
        <ele>1023</ele>
        <time>2026-07-02T20:56:59.000Z</time>
      </trkpt>
      <trkpt lat="44.11245" lon="5.31226">
        <ele>1020</ele>
        <time>2026-07-02T20:58:02.000Z</time>
      </trkpt>
      <trkpt lat="44.11215" lon="5.3124">
        <ele>1017</ele>
        <time>2026-07-02T20:58:39.000Z</time>
      </trkpt>
      <trkpt lat="44.112" lon="5.3125">
        <ele>1016</ele>
        <time>2026-07-02T20:58:57.000Z</time>
      </trkpt>
      <trkpt lat="44.11191" lon="5.31267">
        <ele>1015</ele>
        <time>2026-07-02T20:59:14.000Z</time>
      </trkpt>
      <trkpt lat="44.11176" lon="5.31314">
        <ele>1015</ele>
        <time>2026-07-02T20:59:56.000Z</time>
      </trkpt>
      <trkpt lat="44.11165" lon="5.31327">
        <ele>1014</ele>
        <time>2026-07-02T21:00:13.000Z</time>
      </trkpt>
      <trkpt lat="44.11164" lon="5.31339">
        <ele>1015</ele>
        <time>2026-07-02T21:00:33.000Z</time>
      </trkpt>
      <trkpt lat="44.1117" lon="5.31374">
        <ele>1017</ele>
        <time>2026-07-02T21:01:24.000Z</time>
      </trkpt>
      <trkpt lat="44.11167" lon="5.31414">
        <ele>1020</ele>
        <time>2026-07-02T21:02:28.000Z</time>
      </trkpt>
      <trkpt lat="44.11174" lon="5.31445">
        <ele>1022</ele>
        <time>2026-07-02T21:03:15.000Z</time>
      </trkpt>
      <trkpt lat="44.11168" lon="5.31465">
        <ele>1024</ele>
        <time>2026-07-02T21:03:54.000Z</time>
      </trkpt>
      <trkpt lat="44.11167" lon="5.31477">
        <ele>1025</ele>
        <time>2026-07-02T21:04:14.000Z</time>
      </trkpt>
      <trkpt lat="44.11181" lon="5.31495">
        <ele>1026</ele>
        <time>2026-07-02T21:04:46.000Z</time>
      </trkpt>
      <trkpt lat="44.11182" lon="5.31501">
        <ele>1026</ele>
        <time>2026-07-02T21:04:52.000Z</time>
      </trkpt>
      <trkpt lat="44.11182" lon="5.31501">
        <ele>1026</ele>
        <time>2026-07-02T21:04:52.000Z</time>
      </trkpt>
      <trkpt lat="44.11179" lon="5.31547">
        <ele>1029</ele>
        <time>2026-07-02T21:06:00.000Z</time>
      </trkpt>
      <trkpt lat="44.11163" lon="5.31566">
        <ele>1031</ele>
        <time>2026-07-02T21:06:44.000Z</time>
      </trkpt>
      <trkpt lat="44.11136" lon="5.31664">
        <ele>1035</ele>
        <time>2026-07-02T21:08:52.000Z</time>
      </trkpt>
      <trkpt lat="44.11136" lon="5.317">
        <ele>1036</ele>
        <time>2026-07-02T21:09:32.000Z</time>
      </trkpt>
      <trkpt lat="44.11136" lon="5.317">
        <ele>1036</ele>
        <time>2026-07-02T21:09:32.000Z</time>
      </trkpt>
      <trkpt lat="44.11133" lon="5.3175">
        <ele>1038</ele>
        <time>2026-07-02T21:10:34.000Z</time>
      </trkpt>
      <trkpt lat="44.1114" lon="5.31803">
        <ele>1041</ele>
        <time>2026-07-02T21:11:49.000Z</time>
      </trkpt>
      <trkpt lat="44.1114" lon="5.31854">
        <ele>1045</ele>
        <time>2026-07-02T21:13:12.000Z</time>
      </trkpt>
      <trkpt lat="44.11131" lon="5.32044">
        <ele>1055</ele>
        <time>2026-07-02T21:17:31.000Z</time>
      </trkpt>
      <trkpt lat="44.11133" lon="5.32089">
        <ele>1057</ele>
        <time>2026-07-02T21:18:29.000Z</time>
      </trkpt>
      <trkpt lat="44.11142" lon="5.32161">
        <ele>1059</ele>
        <time>2026-07-02T21:19:49.000Z</time>
      </trkpt>
      <trkpt lat="44.11126" lon="5.3217">
        <ele>1058</ele>
        <time>2026-07-02T21:20:09.000Z</time>
      </trkpt>
      <trkpt lat="44.11126" lon="5.3217">
        <ele>1058</ele>
        <time>2026-07-02T21:20:09.000Z</time>
      </trkpt>
      <trkpt lat="44.11069" lon="5.32206">
        <ele>1054</ele>
        <time>2026-07-02T21:21:20.000Z</time>
      </trkpt>
      <trkpt lat="44.11019" lon="5.32252">
        <ele>1051</ele>
        <time>2026-07-02T21:22:29.000Z</time>
      </trkpt>
      <trkpt lat="44.10991" lon="5.32269">
        <ele>1048</ele>
        <time>2026-07-02T21:23:04.000Z</time>
      </trkpt>
      <trkpt lat="44.10974" lon="5.32284">
        <ele>1045</ele>
        <time>2026-07-02T21:23:27.000Z</time>
      </trkpt>
      <trkpt lat="44.10962" lon="5.32288">
        <ele>1044</ele>
        <time>2026-07-02T21:23:42.000Z</time>
      </trkpt>
      <trkpt lat="44.10942" lon="5.32288">
        <ele>1041</ele>
        <time>2026-07-02T21:24:05.000Z</time>
      </trkpt>
      <trkpt lat="44.10883" lon="5.32269">
        <ele>1033</ele>
        <time>2026-07-02T21:25:14.000Z</time>
      </trkpt>
      <trkpt lat="44.10859" lon="5.32249">
        <ele>1026</ele>
        <time>2026-07-02T21:25:46.000Z</time>
      </trkpt>
      <trkpt lat="44.10854" lon="5.32253">
        <ele>1024</ele>
        <time>2026-07-02T21:25:52.000Z</time>
      </trkpt>
      <trkpt lat="44.10853" lon="5.3228">
        <ele>1022</ele>
        <time>2026-07-02T21:26:14.000Z</time>
      </trkpt>
      <trkpt lat="44.10847" lon="5.32287">
        <ele>1019</ele>
        <time>2026-07-02T21:26:23.000Z</time>
      </trkpt>
      <trkpt lat="44.1084" lon="5.32287">
        <ele>1017</ele>
        <time>2026-07-02T21:26:31.000Z</time>
      </trkpt>
      <trkpt lat="44.10807" lon="5.32268">
        <ele>1010</ele>
        <time>2026-07-02T21:27:11.000Z</time>
      </trkpt>
      <trkpt lat="44.10777" lon="5.32276">
        <ele>1003</ele>
        <time>2026-07-02T21:27:47.000Z</time>
      </trkpt>
      <trkpt lat="44.10764" lon="5.32229">
        <ele>1004</ele>
        <time>2026-07-02T21:28:38.000Z</time>
      </trkpt>
      <trkpt lat="44.10757" lon="5.322">
        <ele>1004</ele>
        <time>2026-07-02T21:29:03.000Z</time>
      </trkpt>
      <trkpt lat="44.10747" lon="5.32174">
        <ele>1003</ele>
        <time>2026-07-02T21:29:28.000Z</time>
      </trkpt>
      <trkpt lat="44.10735" lon="5.32157">
        <ele>1005</ele>
        <time>2026-07-02T21:30:08.000Z</time>
      </trkpt>
      <trkpt lat="44.10708" lon="5.32126">
        <ele>1006</ele>
        <time>2026-07-02T21:30:58.000Z</time>
      </trkpt>
      <trkpt lat="44.10688" lon="5.32079">
        <ele>1008</ele>
        <time>2026-07-02T21:32:03.000Z</time>
      </trkpt>
      <trkpt lat="44.10664" lon="5.32016">
        <ele>1014</ele>
        <time>2026-07-02T21:34:03.000Z</time>
      </trkpt>
      <trkpt lat="44.10651" lon="5.31992">
        <ele>1017</ele>
        <time>2026-07-02T21:34:59.000Z</time>
      </trkpt>
      <trkpt lat="44.10613" lon="5.31945">
        <ele>1019</ele>
        <time>2026-07-02T21:36:18.000Z</time>
      </trkpt>
      <trkpt lat="44.10594" lon="5.31932">
        <ele>1019</ele>
        <time>2026-07-02T21:36:42.000Z</time>
      </trkpt>
      <trkpt lat="44.10576" lon="5.31925">
        <ele>1020</ele>
        <time>2026-07-02T21:37:14.000Z</time>
      </trkpt>
      <trkpt lat="44.10549" lon="5.31899">
        <ele>1019</ele>
        <time>2026-07-02T21:37:51.000Z</time>
      </trkpt>
      <trkpt lat="44.10406" lon="5.31849">
        <ele>1014</ele>
        <time>2026-07-02T21:40:40.000Z</time>
      </trkpt>
      <trkpt lat="44.10406" lon="5.31849">
        <ele>1014</ele>
        <time>2026-07-02T21:40:40.000Z</time>
      </trkpt>
      <trkpt lat="44.10356" lon="5.31841">
        <ele>1012</ele>
        <time>2026-07-02T21:41:37.000Z</time>
      </trkpt>
      <trkpt lat="44.10175" lon="5.31879">
        <ele>1006</ele>
        <time>2026-07-02T21:45:07.000Z</time>
      </trkpt>
      <trkpt lat="44.10149" lon="5.31889">
        <ele>1006</ele>
        <time>2026-07-02T21:45:38.000Z</time>
      </trkpt>
      <trkpt lat="44.10039" lon="5.31957">
        <ele>1005</ele>
        <time>2026-07-02T21:47:55.000Z</time>
      </trkpt>
      <trkpt lat="44.10005" lon="5.31967">
        <ele>1003</ele>
        <time>2026-07-02T21:48:35.000Z</time>
      </trkpt>
      <trkpt lat="44.09979" lon="5.31953">
        <ele>1002</ele>
        <time>2026-07-02T21:49:07.000Z</time>
      </trkpt>
      <trkpt lat="44.09889" lon="5.31943">
        <ele>997</ele>
        <time>2026-07-02T21:50:50.000Z</time>
      </trkpt>
      <trkpt lat="44.09745" lon="5.31906">
        <ele>987</ele>
        <time>2026-07-02T21:53:38.000Z</time>
      </trkpt>
      <trkpt lat="44.09735" lon="5.3191">
        <ele>986</ele>
        <time>2026-07-02T21:53:50.000Z</time>
      </trkpt>
      <trkpt lat="44.09734" lon="5.31918">
        <ele>985</ele>
        <time>2026-07-02T21:53:57.000Z</time>
      </trkpt>
      <trkpt lat="44.0974" lon="5.31958">
        <ele>982</ele>
        <time>2026-07-02T21:54:31.000Z</time>
      </trkpt>
      <trkpt lat="44.09744" lon="5.31957">
        <ele>982</ele>
        <time>2026-07-02T21:56:40.000Z</time>
      </trkpt>
      <trkpt lat="44.0974" lon="5.31959">
        <ele>982</ele>
        <time>2026-07-02T21:56:45.000Z</time>
      </trkpt>
      <trkpt lat="44.09753" lon="5.32015">
        <ele>980</ele>
        <time>2026-07-02T21:57:34.000Z</time>
      </trkpt>
      <trkpt lat="44.09753" lon="5.32026">
        <ele>980</ele>
        <time>2026-07-02T21:57:43.000Z</time>
      </trkpt>
      <trkpt lat="44.09751" lon="5.32035">
        <ele>979</ele>
        <time>2026-07-02T21:57:51.000Z</time>
      </trkpt>
      <trkpt lat="44.09743" lon="5.32047">
        <ele>979</ele>
        <time>2026-07-02T21:58:05.000Z</time>
      </trkpt>
      <trkpt lat="44.09728" lon="5.32055">
        <ele>979</ele>
        <time>2026-07-02T21:58:23.000Z</time>
      </trkpt>
      <trkpt lat="44.09728" lon="5.32055">
        <ele>979</ele>
        <time>2026-07-02T21:58:23.000Z</time>
      </trkpt>
      <trkpt lat="44.09649" lon="5.32091">
        <ele>976</ele>
        <time>2026-07-02T21:59:58.000Z</time>
      </trkpt>
      <trkpt lat="44.09633" lon="5.32095">
        <ele>976</ele>
        <time>2026-07-02T22:00:17.000Z</time>
      </trkpt>
      <trkpt lat="44.09594" lon="5.32096">
        <ele>975</ele>
        <time>2026-07-02T22:01:01.000Z</time>
      </trkpt>
      <trkpt lat="44.09565" lon="5.32129">
        <ele>977</ele>
        <time>2026-07-02T22:02:05.000Z</time>
      </trkpt>
      <trkpt lat="44.09565" lon="5.3213">
        <ele>977</ele>
        <time>2026-07-02T22:03:14.000Z</time>
      </trkpt>
      <trkpt lat="44.09565" lon="5.32129">
        <ele>977</ele>
        <time>2026-07-02T22:03:15.000Z</time>
      </trkpt>
      <trkpt lat="44.09502" lon="5.32201">
        <ele>980</ele>
        <time>2026-07-02T22:05:19.000Z</time>
      </trkpt>
      <trkpt lat="44.0948" lon="5.32232">
        <ele>980</ele>
        <time>2026-07-02T22:05:54.000Z</time>
      </trkpt>
      <trkpt lat="44.09459" lon="5.32262">
        <ele>977</ele>
        <time>2026-07-02T22:06:29.000Z</time>
      </trkpt>
      <trkpt lat="44.09421" lon="5.32345">
        <ele>973</ele>
        <time>2026-07-02T22:07:50.000Z</time>
      </trkpt>
      <trkpt lat="44.0941" lon="5.32356">
        <ele>972</ele>
        <time>2026-07-02T22:08:06.000Z</time>
      </trkpt>
      <trkpt lat="44.09405" lon="5.32387">
        <ele>972</ele>
        <time>2026-07-02T22:08:32.000Z</time>
      </trkpt>
      <trkpt lat="44.0939" lon="5.32409">
        <ele>972</ele>
        <time>2026-07-02T22:08:57.000Z</time>
      </trkpt>
      <trkpt lat="44.09373" lon="5.32476">
        <ele>973</ele>
        <time>2026-07-02T22:10:06.000Z</time>
      </trkpt>
    </trkseg>
  </trk>
</gpx>